Flight Track Log - Related Links

Times and Time Zones

All times are in EDT time to prevent confusion due to time zone crossing. See the UAL709 flight status page for this flight to view local times or setup timezone preferences in your user account.

Time Position Orientation Groundspeed Altitude Reporting Facility
EDT Latitude Longitude Course Direction KTS MPH feet Rate Location/Type
Sun 09:14:33 AM 38.9355 -77.5469 250° West 2,000  Level FlightAware ADS-B (KWWD)
Sun 09:14:56 AM 38.9268 -77.5767 252° West 210 242 3,000 2,769 Climbing FlightAware ADS-B (KWWD)
Sun 09:15:38 AM 38.9105 -77.6331 251° West 237 273 5,000 2,734 Climbing FlightAware ADS-B (KWWD)
Sun 09:16:15 AM 38.8942 -77.6872 249° West 266 306 6,600 2,778 Climbing FlightAware ADS-B (KWWD)
Sun 09:16:32 AM 38.8886 -77.7129 252° West 268 308 7,500 3,000 Climbing FlightAware ADS-B (KWWD)
Sun 09:16:47 AM 38.8860 -77.7376 256° West 271 312 8,200 2,553 Climbing FlightAware ADS-B (KWWD)
Sun 09:17:19 AM 38.8830 -77.7914 264° West 272 313 9,500 -3,956 Climbing FlightAware ADS-B (KWWD)
Sun 09:18:18 AM 41.9667 -87.9667 271° West 190 219 2,200 -2,842 Descending Chicago TRACON
Sun 09:19:00 AM 38.8872 -78.0251 271° West  Level Estimated
Sun 09:19:13 AM 41.9833 -88.0333 289° West 222 255 4,100  Level Chicago TRACON
Sun 09:20:00 AM 38.8894 -78.1639 271° West  Level Estimated
Sun 09:20:38 AM 41.9700 -88.1633 262° West 252 290 7,500  Level Chicago Center
Sun 09:21:00 AM 38.8915 -78.3027 271° West  Level Estimated
Sun 09:21:40 AM 41.9442 -88.2631 251° West 259 298 10,300  Level Chicago Center
Sun 09:22:00 AM 38.8934 -78.4415 271° West  Level Estimated
Sun 09:22:41 AM 41.9164 -88.3681 250° West 298 343 11,500  Level Chicago Center
Sun 09:23:00 AM 38.8952 -78.5803 271° West  Level Estimated
Sun 09:23:43 AM 41.8797 -88.5044 250° West 359 413 13,300  Level Chicago Center
Sun 09:24:45 AM 41.8458 -88.6317 250° West 362 417 15,300 2,081 Climbing Chicago Center
Sun 09:25:47 AM 41.8086 -88.7647 249° West 380 437 17,600 1,951 Climbing Chicago Center
Sun 09:26:48 AM 41.7864 -88.8867 256° West 378 435 19,300 1,902 Climbing Chicago Center
Sun 09:27:50 AM 41.7639 -89.0614 260° West 391 450 21,500 1,790 Climbing Chicago Center
Sun 09:28:52 AM 41.7436 -89.2094 260° West 400 460 23,000 1,463 Climbing Chicago Center
Sun 09:29:53 AM 41.7242 -89.3611 260° West 412 474 24,500 1,317 Climbing Chicago Center
Sun 09:30:55 AM 41.7036 -89.5144 260° West 417 480 25,700 1,258 Climbing Chicago Center
Sun 09:31:57 AM 41.6817 -89.6733 260° West 427 491 27,100 1,403 Climbing Chicago Center
Sun 09:32:59 AM 41.6447 -89.8239 252° West 429 494 28,600 1,210 Climbing Chicago Center
Sun 09:34:01 AM 41.5978 -89.9669 246° West 425 489 29,600 1,268 Climbing Chicago Center
Sun 09:35:02 AM 41.5419 -90.1400 247° West 425 489 31,200 1,122 Climbing Chicago Center
Sun 09:36:04 AM 41.4944 -90.2844 246° West 425 489 31,900 878 Climbing Chicago Center
Sun 09:37:05 AM 41.4472 -90.4297 247° West 426 490 33,000 537 Climbing Chicago Center
Sun 09:38:07 AM 41.4003 -90.5736 247° West 426 490 33,000 290 Level Chicago Center
Sun 09:39:09 AM 41.3519 -90.7183 246° West 426 490 33,600 484 Climbing Chicago Center
Sun 09:40:11 AM 41.3053 -90.8603 246° West 424 488 34,000 195 Climbing Chicago Center
Sun 09:41:12 AM 41.2589 -91.0017 246° West 421 484 34,000  Level Chicago Center
Sun 09:42:14 AM 41.2011 -91.1692 245° Southwest 420 483 34,000  Level Chicago Center
Sun 09:43:16 AM 41.1536 -91.3114 246° West 420 483 34,000  Level Chicago Center
Sun 09:44:18 AM 41.1044 -91.4531 245° Southwest 421 484 34,000  Level Chicago Center
Sun 09:45:19 AM 41.0572 -91.5922 246° West 419 482 34,000  Level Chicago Center
Sun 09:46:21 AM 41.0114 -91.7275 246° West 414 476 34,000  Level Chicago Center
Sun 09:47:23 AM 40.9642 -91.8619 245° Southwest 413 475 34,000  Level Chicago Center
Sun 09:48:25 AM 40.9072 -92.0242 245° Southwest 410 472 34,000  Level Chicago Center
Sun 09:49:26 AM 40.8611 -92.1578 246° West 408 470 34,000  Level Chicago Center
Sun 09:50:28 AM 40.8156 -92.2919 246° West 407 468 34,000  Level Chicago Center
Sun 09:51:30 AM 40.7681 -92.4231 244° Southwest 405 466 34,000  Level Chicago Center
Sun 09:52:32 AM 40.7217 -92.5550 245° Southwest 403 464 34,000  Level Chicago Center
Sun 09:53:34 AM 40.6669 -92.7111 245° Southwest 401 461 34,000  Level Chicago Center
Sun 09:54:35 AM 40.6208 -92.8408 245° Southwest 400 460 34,000  Level Chicago Center
Sun 09:55:25 AM 40.5839 -92.9431 245° Southwest 396 456 34,000  Level Kansas City Center
Sun 09:56:26 AM 40.5375 -93.0717 245° Southwest 395 455 34,000  Level Kansas City Center
Sun 09:57:28 AM 40.4906 -93.2000 244° Southwest 396 456 34,000  Level Kansas City Center
Sun 09:58:29 AM 40.4447 -93.3297 245° Southwest 396 456 34,000  Level Kansas City Center
Sun 09:59:30 AM 40.3972 -93.4900 249° West 396 456 34,000  Level Kansas City Center
Sun 10:00:31 AM 40.3578 -93.6244 249° West 397 457 34,000  Level Kansas City Center
Sun 10:01:32 AM 40.3183 -93.7608 249° West 399 459 34,000  Level Kansas City Center
Sun 10:02:35 AM 40.2772 -93.8975 249° West 402 463 34,000  Level Kansas City Center
Sun 10:03:37 AM 40.2350 -94.0342 248° West 406 467 34,000  Level Kansas City Center
Sun 10:04:38 AM 40.1900 -94.1800 248° West 407 468 34,000  Level Kansas City Center
Sun 10:05:40 AM 40.1472 -94.3172 248° West 407 468 34,000  Level Kansas City Center
Sun 10:06:41 AM 40.1061 -94.4531 248° West 406 467 34,000  Level Kansas City Center
Sun 10:07:41 AM 40.0647 -94.5892 248° West 406 467 34,000  Level Kansas City Center
Sun 10:08:43 AM 40.0147 -94.7514 248° West 404 465 34,000  Level Kansas City Center
Sun 10:09:43 AM 39.9739 -94.8831 248° West 401 461 34,000  Level Kansas City Center
Sun 10:10:44 AM 39.9289 -95.0133 246° West 400 460 34,000  Level Kansas City Center
Sun 10:11:48 AM 39.8808 -95.1406 244° Southwest 398 458 34,000  Level Kansas City Center
Sun 10:12:48 AM 39.8333 -95.2703 245° Southwest 398 458 34,000  Level Kansas City Center
Sun 10:13:49 AM 39.7850 -95.4000 244° Southwest 398 458 34,000  Level Kansas City Center
Sun 10:14:50 AM 39.7361 -95.5286 244° Southwest 399 459 34,000  Level Kansas City Center
Sun 10:15:51 AM 39.6797 -95.6828 245° Southwest 399 459 34,000  Level Kansas City Center
Sun 10:16:55 AM 39.6292 -95.8128 243° Southwest 399 459 34,000  Level Kansas City Center
Sun 10:17:56 AM 39.5822 -95.9394 244° Southwest 399 459 34,000  Level Kansas City Center
Sun 10:18:56 AM 39.5333 -96.0658 243° Southwest 398 458 34,000  Level Kansas City Center
Sun 10:19:59 AM 39.4819 -96.1997 244° Southwest 398 458 34,000  Level Kansas City Center
Sun 10:21:00 AM 39.4317 -96.3275 243° Southwest 398 458 34,000  Level Kansas City Center
Sun 10:22:01 AM 39.3825 -96.4572 244° Southwest 399 459 34,000  Level Kansas City Center
Sun 10:23:01 AM 39.3344 -96.5792 243° Southwest 400 460 34,000  Level Kansas City Center
Sun 10:24:03 AM 39.2744 -96.7353 244° Southwest 401 461 34,000  Level Kansas City Center
Sun 10:25:06 AM 39.2239 -96.8647 243° Southwest 402 463 34,000  Level Kansas City Center
Sun 10:26:06 AM 39.1722 -96.9942 243° Southwest 403 464 34,000  Level Kansas City Center
Sun 10:27:09 AM 39.1228 -97.1250 244° Southwest 404 465 34,000  Level Kansas City Center
Sun 10:28:11 AM 39.0719 -97.2547 243° Southwest 404 465 34,000  Level Kansas City Center
Sun 10:29:12 AM 39.0211 -97.3831 243° Southwest 405 466 34,000  Level Kansas City Center
Sun 10:30:13 AM 38.9692 -97.5128 243° Southwest 406 467 34,000  Level Kansas City Center
Sun 10:31:13 AM 38.9175 -97.6411 243° Southwest 406 467 34,000  Level Kansas City Center
Sun 10:32:15 AM 38.8686 -97.8031 249° West 406 467 34,000  Level Kansas City Center
Sun 10:33:17 AM 38.8261 -97.9428 249° West 406 467 34,000  Level Kansas City Center
Sun 10:34:18 AM 38.7844 -98.0767 248° West 406 467 34,000  Level Kansas City Center
Sun 10:35:19 AM 38.7422 -98.2106 248° West 407 468 34,000  Level Kansas City Center
Sun 10:36:21 AM 38.7003 -98.3461 248° West 408 470 34,000  Level Kansas City Center
Sun 10:37:21 AM 38.6569 -98.4806 248° West 409 471 34,000  Level Kansas City Center
Sun 10:38:24 AM 38.6158 -98.6156 249° West 409 471 34,000  Level Kansas City Center
Sun 10:39:25 AM 38.5728 -98.7506 248° West 409 471 34,000  Level Kansas City Center
Sun 10:40:26 AM 38.5214 -98.9106 248° West 409 471 34,000  Level Kansas City Center
Sun 10:41:30 AM 38.4792 -99.0439 248° West 409 471 34,000  Level Kansas City Center
Sun 10:42:31 AM 38.4361 -99.1778 248° West 409 471 34,000  Level Kansas City Center
Sun 10:43:31 AM 38.3928 -99.3100 247° West 409 471 34,000  Level Kansas City Center
Sun 10:44:32 AM 38.3514 -99.4431 248° West 408 470 34,000  Level Kansas City Center
Sun 10:45:36 AM 38.3044 -99.5814 247° West 407 468 34,000  Level Kansas City Center
Sun 10:46:37 AM 38.2558 -99.7297 247° West 407 468 34,000  Level Kansas City Center
Sun 10:47:38 AM 38.2133 -99.8575 247° West 407 468 34,000  Level Kansas City Center
Sun 10:48:39 AM 38.1697 -99.9858 247° West 408 470 34,000  Level Kansas City Center
Sun 10:49:40 AM 38.1203 -100.1353 247° West 409 471 34,000  Level Kansas City Center
Sun 10:50:44 AM 38.0764 -100.2636 247° West 411 473 34,000  Level Kansas City Center
Sun 10:51:44 AM 38.0267 -100.4136 247° West 411 473 34,000  Level Kansas City Center
Sun 10:52:47 AM 37.9831 -100.5394 246° West 411 473 34,000  Level Kansas City Center
Sun 10:53:46 AM 37.9322 -100.6875 247° West 412 474 34,000  Level Kansas City Center
Sun 10:54:50 AM 37.8811 -100.8083 242° Southwest 411 473 34,000  Level Kansas City Center
Sun 10:55:50 AM 37.8139 -100.9444 238° Southwest 411 473 34,000  Level Kansas City Center
Sun 10:56:53 AM 37.7500 -101.0728 238° Southwest 412 474 34,000  Level Kansas City Center
Sun 10:57:53 AM 37.6897 -101.1986 239° Southwest 413 475 34,000  Level Kansas City Center
Sun 10:58:55 AM 37.6317 -101.3167 238° Southwest 413 475 34,000  Level Kansas City Center
Sun 10:59:56 AM 37.5639 -101.4556 238° Southwest 414 476 34,000  Level Kansas City Center
Sun 11:00:59 AM 37.5061 -101.5753 239° Southwest 415 478 34,000  Level Kansas City Center
Sun 11:02:00 AM 37.4478 -101.6939 238° Southwest 415 478 34,000  Level Kansas City Center
Sun 11:03:00 AM 37.3794 -101.8328 238° Southwest 416 479 34,000  Level Kansas City Center
Sun 11:04:04 AM 37.3203 -101.9497 238° Southwest 416 479 34,000  Level Kansas City Center
Sun 11:05:05 AM 37.2533 -102.0864 238° Southwest 415 478 34,000  Level Kansas City Center
Sun 11:06:06 AM 37.1950 -102.2017 238° Southwest 413 475 34,000  Level Kansas City Center
Sun 11:07:08 AM 37.1269 -102.3372 238° Southwest 413 475 34,000  Level Kansas City Center
Sun 11:08:22 AM 37.0603 -102.4744 239° Southwest 413 475 34,000  Level Albuquerque Center
Sun 11:09:24 AM 36.9928 -102.6083 238° Southwest 413 475 34,000  Level Albuquerque Center
Sun 11:10:26 AM 36.9317 -102.7258 237° Southwest 413 475 34,000  Level Albuquerque Center
Sun 11:11:28 AM 36.8686 -102.8531 238° Southwest 416 479 34,000  Level Albuquerque Center
Sun 11:12:30 AM 36.8053 -102.9753 237° Southwest 418 481 34,000  Level Albuquerque Center
Sun 11:13:32 AM 36.7306 -103.1206 237° Southwest 417 480 34,000  Level Albuquerque Center
Sun 11:14:33 AM 36.6672 -103.2400 237° Southwest 417 480 34,000  Level Albuquerque Center
Sun 11:15:36 AM 36.6117 -103.3492 238° Southwest 417 480 34,000  Level Albuquerque Center
Sun 11:16:38 AM 36.5378 -103.4914 237° Southwest 417 480 34,000  Level Albuquerque Center
Sun 11:17:40 AM 36.4736 -103.6125 237° Southwest 417 480 34,000  Level Albuquerque Center
Sun 11:18:42 AM 36.4108 -103.7356 238° Southwest 417 480 34,000  Level Albuquerque Center
Sun 11:19:44 AM 36.3475 -103.8550 237° Southwest 417 480 34,000  Level Albuquerque Center
Sun 11:20:46 AM 36.2836 -103.9761 237° Southwest 417 480 34,000  Level Albuquerque Center
Sun 11:21:48 AM 36.2208 -104.0939 237° Southwest 415 478 34,000  Level Albuquerque Center
Sun 11:22:50 AM 36.1475 -104.2333 237° Southwest 414 476 34,000  Level Albuquerque Center
Sun 11:23:52 AM 36.0836 -104.3503 236° Southwest 413 475 34,000  Level Albuquerque Center
Sun 11:24:54 AM 36.0208 -104.4658 236° Southwest 407 468 34,000 194 Level Albuquerque Center
Sun 11:25:56 AM 35.9586 -104.5831 237° Southwest 407 468 34,400 823 Climbing Albuquerque Center
Sun 11:26:58 AM 35.8964 -104.6986 236° Southwest 406 467 35,700 774 Climbing Albuquerque Center
Sun 11:28:00 AM 35.8333 -104.8144 236° Southwest 405 466 36,000 145 Climbing Albuquerque Center
Sun 11:29:02 AM 35.7594 -104.9469 236° Southwest 402 463 36,000  Level Albuquerque Center
Sun 11:30:04 AM 35.6975 -105.0617 236° Southwest 402 463 36,000  Level Albuquerque Center
Sun 11:31:06 AM 35.6383 -105.1808 239° Southwest 402 463 36,000  Level Albuquerque Center
Sun 11:32:08 AM 35.5947 -105.3064 247° West 403 464 36,000  Level Albuquerque Center
Sun 11:33:10 AM 35.5511 -105.4322 247° West 401 461 36,000  Level Albuquerque Center
Sun 11:34:12 AM 35.5022 -105.5650 246° West 400 460 36,000  Level Albuquerque Center
Sun 11:35:14 AM 35.4578 -105.6889 246° West 398 458 36,000  Level Albuquerque Center
Sun 11:36:17 AM 35.4131 -105.8136 246° West 398 458 36,000 -48 Level Albuquerque Center
Sun 11:37:19 AM 35.3672 -105.9375 246° West 396 456 35,900  Descending Albuquerque Center
Sun 11:38:21 AM 35.3211 -106.0628 246° West 396 456 36,000 48 Climbing Albuquerque Center
Sun 11:39:23 AM 35.2761 -106.1872 246° West 397 457 36,000  Level Albuquerque Center
Sun 11:40:25 AM 35.2192 -106.3047 239° Southwest 403 464 36,000  Level Albuquerque Center
Sun 11:41:27 AM 35.1625 -106.4506 245° Southwest 398 458 36,000  Level Albuquerque Center
Sun 11:42:29 AM 35.1233 -106.5769 249° West 397 457 36,000  Level Albuquerque Center
Sun 11:49:43 AM 34.8200 -107.4778 248° West 394 453 36,000  Level Albuquerque Center
Sun 11:50:45 AM 34.7847 -107.5881 249° West 406 467 36,000  Level Albuquerque Center
Sun 11:51:00 AM 34.7750 -107.6414 248° West  Level FlightAware Approximate
Sun 11:52:00 AM 34.7332 -107.7656 248° West  Level FlightAware Approximate
Sun 11:52:49 AM 34.6925 -107.8681 248° West 407 468 36,000  Level Albuquerque Center
Sun 11:57:59 AM 34.4706 -108.5261 246° West 406 467 36,000  Level Albuquerque Center
Sun 12:00:03 PM 34.3881 -108.7661 247° West 405 466 36,000  Level Albuquerque Center
Sun 12:01:00 PM 34.3589 -108.8749 247° West  Level FlightAware Approximate
Sun 12:01:05 PM 34.3394 -108.9050 247° West 405 466 36,000  Level Albuquerque Center
Sun 12:04:11 PM 34.2094 -109.2775 259° West 403 464 36,000  Level Albuquerque Center
Sun 12:07:17 PM 34.0686 -109.6811 247° West 403 464 36,000  Level Albuquerque Center
Sun 12:10:04 PM 33.9508 -110.0072 247° West 404 465 36,000  Level Los Angeles Center
Sun 12:11:06 PM 33.8983 -110.1553 247° West 404 465 36,000  Level Los Angeles Center
Sun 12:12:08 PM 33.8536 -110.2783 246° West 403 464 36,000  Level Los Angeles Center
Sun 12:13:10 PM 33.8092 -110.4014 247° West 403 464 36,000  Level Los Angeles Center
Sun 12:14:12 PM 33.7647 -110.5222 246° West 399 459 36,000  Level Los Angeles Center
Sun 12:15:14 PM 33.7211 -110.6442 247° West 399 459 36,000  Level Los Angeles Center
Sun 12:16:16 PM 33.6772 -110.7650 246° West 399 459 36,000  Level Los Angeles Center
Sun 12:17:18 PM 33.6319 -110.8878 246° West 399 459 36,000 -484 Level Los Angeles Center
Sun 12:18:20 PM 33.5792 -111.0336 247° West 399 459 35,000 -968 Descending Los Angeles Center
Sun 12:19:22 PM 33.5347 -111.1581 247° West 399 459 34,000 -484 Descending Los Angeles Center
Sun 12:20:24 PM 33.4858 -111.2850 245° Southwest 410 472 34,000  Level Los Angeles Center
Sun 12:21:26 PM 33.4372 -111.4125 245° Southwest 414 476 34,000  Level Los Angeles Center
Sun 12:22:28 PM 33.3625 -111.5150 229° Southwest 417 480 34,000  Level Los Angeles Center
Sun 12:23:30 PM 33.2464 -111.5500 194° South 432 497 34,000  Level Los Angeles Center
Sun 12:24:32 PM 33.1267 -111.5664 187° South 433 498 34,000  Level Los Angeles Center
Sun 12:25:34 PM 32.9808 -111.5867 187° South 434 499 34,000  Level Los Angeles Center
Sun 12:26:37 PM 32.8636 -111.6197 193° South 437 503 34,000  Level Los Angeles Center
Sun 12:27:39 PM 32.7597 -111.6819 207° Southwest 423 487 34,000  Level Los Angeles Center
Sun 12:28:41 PM 32.6611 -111.7600 214° Southwest 424 488 34,000 -48 Level Los Angeles Center
Sun 12:29:43 PM 32.5558 -111.8564 218° Southwest 421 484 33,900  Descending Los Angeles Center
Sun 12:30:45 PM 32.5175 -111.9800 250° West 413 475 34,000 48 Climbing Los Angeles Center
Sun 12:31:47 PM 32.5306 -112.1117 277° West 404 465 34,000 -48 Level Los Angeles Center
Sun 12:32:49 PM 32.5500 -112.2442 280° West 407 468 33,900 -48 Descending Los Angeles Center
Sun 12:33:52 PM 32.5678 -112.3753 279° West 408 470 33,900 48 Level Los Angeles Center
Sun 12:34:54 PM 32.5897 -112.5339 279° West 408 470 34,000 48 Climbing Los Angeles Center
Sun 12:35:56 PM 32.6072 -112.6658 279° West 408 470 34,000  Level Los Angeles Center
Sun 12:36:58 PM 32.6258 -112.7956 280° West 408 470 34,000  Level Los Angeles Center
Sun 12:38:00 PM 32.6431 -112.9256 279° West 407 468 34,000  Level Los Angeles Center
Sun 12:39:02 PM 32.6633 -113.0814 279° West 407 468 34,000  Level Los Angeles Center
Sun 12:40:04 PM 32.6792 -113.2103 278° West 403 464 34,000  Level Los Angeles Center
Sun 12:41:07 PM 32.6967 -113.3400 279° West 402 463 34,000  Level Los Angeles Center
Sun 12:42:09 PM 32.7150 -113.4775 279° West 402 463 34,000  Level Los Angeles Center
Sun 12:43:11 PM 32.7306 -113.6103 278° West 405 466 34,000  Level Los Angeles Center
Sun 12:44:13 PM 32.7478 -113.7447 279° West 408 470 34,000  Level Los Angeles Center
Sun 12:45:15 PM 32.7653 -113.8778 279° West 409 471 34,000  Level Los Angeles Center
Sun 12:46:17 PM 32.7764 -114.0400 275° West 411 473 34,000 -339 Level Los Angeles Center
Sun 12:47:19 PM 32.7742 -114.1753 269° West 412 474 33,300 -919 Descending Los Angeles Center
Sun 12:48:21 PM 32.7725 -114.3097 269° West 408 470 32,100 -1,296 Descending Los Angeles Center
Sun 12:49:24 PM 32.7708 -114.4456 269° West 410 472 30,600 -1,536 Descending Los Angeles Center
Sun 12:50:26 PM 32.7686 -114.5850 269° West 422 486 28,900 -1,500 Descending Los Angeles Center
Sun 12:51:28 PM 32.7656 -114.7539 269° West 424 488 27,500 -1,355 Descending Los Angeles Center
Sun 12:52:30 PM 32.7639 -114.8828 269° West 395 455 26,100 -1,500 Descending Los Angeles Center
Sun 12:53:32 PM 32.7597 -115.0058 268° West 376 433 24,400 -1,065 Descending Los Angeles Center
Sun 12:54:34 PM 32.7600 -115.1258 270° West 367 422 23,900 -194 Descending Los Angeles Center
Sun 12:55:36 PM 32.7569 -115.2478 268° West 369 425 24,000 48 Climbing Los Angeles Center
Sun 12:56:39 PM 32.7539 -115.3694 268° West 369 425 24,000 -48 Level Los Angeles Center
Sun 12:57:41 PM 32.7522 -115.5147 269° West 370 426 23,900 -629 Descending Los Angeles Center
Sun 12:58:43 PM 32.7511 -115.6347 269° West 367 422 22,700 -1,306 Descending Los Angeles Center
Sun 12:59:45 PM 32.7494 -115.7531 269° West 362 417 21,200 -1,403 Descending Los Angeles Center
Sun 01:00:47 PM 32.7469 -115.8706 269° West 359 413 19,800 -1,742 Descending Los Angeles Center
Sun 01:01:49 PM 32.7447 -115.9872 269° West 357 411 17,600 -2,032 Descending Los Angeles Center
Sun 01:02:51 PM 32.7439 -116.1025 270° West 351 404 15,600 -2,177 Descending Los Angeles Center
Sun 01:03:53 PM 32.7408 -116.2386 269° West 346 398 13,100 -2,129 Descending Los Angeles Center
Sun 01:04:55 PM 32.7386 -116.3506 269° West 339 390 11,200 -1,440 Descending Los Angeles Center
Sun 01:05:58 PM 32.7344 -116.4578 267° West 326 375 10,100 -768 Descending Los Angeles Center
Sun 01:07:00 PM 32.7339 -116.5500 270° West 292 336 9,600 -919 Descending Los Angeles Center
Sun 01:08:02 PM 32.7175 -116.6353 257° West 275 316 8,200 -1,306 Descending Los Angeles Center
Sun 01:09:04 PM 32.7094 -116.7206 264° West 267 307 6,900 -1,016 Descending Los Angeles Center
Sun 01:10:06 PM 32.7083 -116.8050 269° West 262 302 6,100 -871 Descending Los Angeles Center
Sun 01:11:08 PM 32.6850 -116.8908 252° West 225 259 5,100 -919 Descending Los Angeles Center
Sun 01:12:10 PM 32.6764 -116.9511 260° West 204 235 4,200 -830 Descending Los Angeles Center
Sun 01:12:42 PM 32.6833 -116.9833 284° West 162 186 3,800 -783 Descending Southern California TRACON
Sun 01:13:42 PM 32.7000 -117.0167 301° West 141 162 3,000 -800 Descending Southern California TRACON
Sun 01:14:42 PM 32.7000 -117.0667 270° West 144 166 2,200 -850 Descending Southern California TRACON
Sun 01:15:42 PM 32.7167 -117.1167 292° West 142 163 1,300 -742 Descending Southern California TRACON
Sun 01:16:19 PM 32.7194 -117.1328 282° West 140 161 1,000 -667 Descending Los Angeles Center
Sun 01:17:21 PM 32.7294 -117.1761 285° West 139 160 200 -774 Descending Los Angeles Center

Login

Don't have an account? Register now (free) for customized features, flight alerts, and more!